createdAt,value
2023-05-18T00:00:16.082Z,100984.78
2023-05-18T00:05:20.719Z,100983.63
2023-05-18T00:10:22.384Z,100983.97
2023-05-18T00:15:24.166Z,100978.25
2023-05-18T00:20:26.804Z,100982.00
2023-05-18T00:25:28.688Z,100979.59
2023-05-18T00:30:30.413Z,100973.81
2023-05-18T00:35:32.278Z,100969.66
2023-05-18T00:40:33.991Z,100978.19
2023-05-18T00:45:35.970Z,100972.91
2023-05-18T00:50:38.234Z,100967.63
2023-05-18T00:55:39.823Z,100972.00
2023-05-18T01:00:41.391Z,100971.28
2023-05-18T01:05:42.963Z,100970.19
2023-05-18T01:10:46.470Z,100966.50
2023-05-18T01:15:54.486Z,100961.34
2023-05-18T01:21:00.324Z,100969.50
2023-05-18T01:26:32.808Z,100971.19
2023-05-18T01:31:35.827Z,100968.56
2023-05-18T01:36:37.744Z,100970.50
2023-05-18T01:41:43.344Z,100975.97
2023-05-18T01:46:59.488Z,100965.31
2023-05-18T01:52:08.213Z,100961.06
2023-05-18T01:57:10.746Z,100967.81
2023-05-18T02:02:12.566Z,100952.84
2023-05-18T02:07:14.159Z,100959.81
2023-05-18T02:12:16.849Z,100959.16
2023-05-18T02:17:18.400Z,100962.84
2023-05-18T02:22:19.920Z,100957.28
2023-05-18T02:27:21.836Z,100950.53
2023-05-18T02:32:23.529Z,100945.53
2023-05-18T02:37:25.065Z,100945.88
2023-05-18T02:42:27.072Z,100943.88
2023-05-18T02:47:29.682Z,100937.59
2023-05-18T02:52:31.494Z,100941.72
2023-05-18T02:57:33.958Z,100944.72
2023-05-18T03:02:41.368Z,100937.34
2023-05-18T03:07:50.591Z,100928.63
2023-05-18T03:12:53.492Z,100936.34
2023-05-18T03:17:55.900Z,100944.69
2023-05-18T03:22:58.067Z,100953.34
2023-05-18T03:27:59.728Z,100951.34
2023-05-18T03:33:02.646Z,100951.88
2023-05-18T03:38:05.647Z,100955.22
2023-05-18T03:43:07.809Z,100961.00
2023-05-18T03:48:11.179Z,100964.72
2023-05-18T03:53:13.368Z,100968.31
2023-05-18T03:58:16.059Z,100971.31
2023-05-18T04:03:17.899Z,100973.38
2023-05-18T04:08:20.514Z,100969.47
2023-05-18T04:13:22.061Z,100978.56
2023-05-18T04:18:23.861Z,100989.91
2023-05-18T04:23:25.615Z,100982.91
2023-05-18T04:28:28.594Z,100993.66
2023-05-18T04:33:30.420Z,101001.31
2023-05-18T04:38:34.598Z,101005.28
2023-05-18T04:43:37.891Z,101011.78
2023-05-18T04:48:40.054Z,101007.19
2023-05-18T04:53:41.681Z,101015.03
2023-05-18T04:58:48.203Z,101025.00
2023-05-18T05:03:50.005Z,101019.38
2023-05-18T05:08:51.958Z,101025.94
2023-05-18T05:13:53.555Z,101018.44
2023-05-18T05:18:55.175Z,101024.16
2023-05-18T05:23:56.717Z,101030.16
2023-05-18T05:29:00.210Z,101013.69
2023-05-18T05:34:04.430Z,101020.78
2023-05-18T05:39:06.078Z,101010.97
2023-05-18T05:44:10.711Z,101020.19
2023-05-18T05:49:12.466Z,101015.31
2023-05-18T05:54:14.673Z,101013.97
2023-05-18T05:59:16.282Z,101000.50
2023-05-18T06:04:18.656Z,101009.97
2023-05-18T06:09:20.687Z,101011.84
2023-05-18T06:14:23.748Z,101007.34
2023-05-18T06:19:26.445Z,101001.53
2023-05-18T06:24:28.548Z,101003.47
2023-05-18T06:30:07.775Z,100991.72
2023-05-18T06:35:24.929Z,101001.16
2023-05-18T06:40:26.488Z,100982.84
2023-05-18T06:45:28.255Z,100970.41
2023-05-18T06:50:35.351Z,100972.94
2023-05-18T06:55:37.891Z,100983.00
2023-05-18T07:00:39.866Z,100991.53
2023-05-18T07:05:42.137Z,100973.38
2023-05-18T07:10:43.738Z,100977.44
2023-05-18T07:15:45.715Z,100981.97
2023-05-18T07:20:47.285Z,100967.28
2023-05-18T07:25:49.242Z,100967.78
2023-05-18T07:30:51.044Z,100971.63
2023-05-18T07:35:52.595Z,100967.97
2023-05-18T07:40:54.229Z,100949.84
2023-05-18T07:45:55.785Z,100953.81
2023-05-18T07:50:57.297Z,100926.63
2023-05-18T07:55:58.892Z,100926.78
2023-05-18T08:01:00.445Z,100945.25
2023-05-18T08:06:02.076Z,100939.88
2023-05-18T08:11:04.882Z,100965.84
2023-05-18T08:16:11.781Z,100951.06
2023-05-18T08:21:14.132Z,100952.00
2023-05-18T08:26:15.664Z,100951.25
2023-05-18T08:31:17.246Z,100954.31
2023-05-18T08:36:18.918Z,100957.56
2023-05-18T08:41:26.598Z,100931.72
2023-05-18T08:46:34.745Z,100917.84
2023-05-18T08:51:38.032Z,100947.34
2023-05-18T08:56:40.348Z,100931.41
2023-05-18T09:01:42.058Z,100929.38
2023-05-18T09:06:43.892Z,100912.09
2023-05-18T09:11:47.058Z,100901.28
2023-05-18T09:16:51.097Z,100923.94
2023-05-18T09:21:52.659Z,100933.63
2023-05-18T09:26:54.710Z,100909.78
2023-05-18T09:31:56.416Z,100925.09
2023-05-18T09:36:58.594Z,100920.75
2023-05-18T09:42:03.519Z,100909.28
2023-05-18T09:47:12.034Z,100896.00
2023-05-18T09:52:13.775Z,100923.69
2023-05-18T09:57:20.752Z,100899.84
2023-05-18T10:02:25.232Z,100908.69
2023-05-18T10:07:29.227Z,100896.84
2023-05-18T10:12:30.879Z,100902.03
2023-05-18T10:17:33.587Z,100906.63
2023-05-18T10:22:36.537Z,100883.34
2023-05-18T10:27:39.122Z,100914.09
2023-05-18T10:32:42.722Z,100889.88
2023-05-18T10:37:50.175Z,100874.47
2023-05-18T10:42:53.263Z,100869.34
2023-05-18T10:47:55.779Z,100888.75
2023-05-18T10:52:59.717Z,100870.31
2023-05-18T10:58:07.310Z,100868.38
2023-05-18T11:03:13.560Z,100857.16
2023-05-18T11:08:26.666Z,100873.78
2023-05-18T11:13:30.157Z,100860.13
2023-05-18T11:18:45.285Z,100856.47
2023-05-18T11:24:17.294Z,100838.25
2023-05-18T11:29:20.207Z,100835.84
2023-05-18T11:34:37.263Z,100851.31
2023-05-18T11:39:51.663Z,100845.66
2023-05-18T11:45:05.488Z,100827.16
2023-05-18T11:50:09.194Z,100836.97
2023-05-18T11:55:14.408Z,100831.09
2023-05-18T12:00:17.073Z,100866.88
2023-05-18T12:05:19.507Z,100834.06
2023-05-18T12:10:22.171Z,100875.47
2023-05-18T12:15:24.483Z,100856.97
2023-05-18T12:20:26.661Z,100830.28
2023-05-18T12:25:28.425Z,100814.22
2023-05-18T12:30:35.501Z,100808.53
2023-05-18T12:35:37.909Z,100812.13
2023-05-18T12:40:48.575Z,100810.94
2023-05-18T12:45:50.290Z,100783.00
2023-05-18T12:50:52.160Z,100786.66
2023-05-18T12:56:01.613Z,100787.09
2023-05-18T13:01:12.289Z,100791.88
2023-05-18T13:06:13.844Z,100789.53
2023-05-18T13:11:16.726Z,100772.34
2023-05-18T13:16:18.355Z,100785.72
2023-05-18T13:21:19.968Z,100783.06
2023-05-18T13:26:22.931Z,100759.41
2023-05-18T13:31:25.225Z,100770.38
2023-05-18T13:36:29.630Z,100754.59
2023-05-18T13:41:31.326Z,100762.59
2023-05-18T13:46:33.173Z,100754.84
2023-05-18T13:51:34.813Z,100760.13
2023-05-18T13:56:36.416Z,100761.44
2023-05-18T14:01:38.043Z,100730.38
2023-05-18T14:06:40.901Z,100739.00
2023-05-18T14:11:42.549Z,100733.53
2023-05-18T14:16:44.147Z,100743.53
2023-05-18T14:21:45.758Z,100737.69
2023-05-18T14:26:47.338Z,100724.25
2023-05-18T14:31:49.041Z,100723.13
2023-05-18T14:36:50.783Z,100709.78
2023-05-18T14:41:52.374Z,100730.88
2023-05-18T14:46:54.009Z,100729.13
2023-05-18T14:51:55.684Z,100719.59
2023-05-18T14:56:57.426Z,100709.63
2023-05-18T15:01:59.125Z,100702.47
2023-05-18T15:07:00.777Z,100708.28
2023-05-18T15:12:02.437Z,100695.44
2023-05-18T15:17:04.160Z,100697.88
2023-05-18T15:22:05.817Z,100701.00
2023-05-18T15:27:08.744Z,100686.59
2023-05-18T15:32:10.407Z,100678.00
2023-05-18T15:37:12.026Z,100679.41
2023-05-18T15:42:13.576Z,100707.97
2023-05-18T15:47:15.085Z,100682.72
2023-05-18T15:52:16.653Z,100698.50
2023-05-18T15:57:18.233Z,100691.88
2023-05-18T16:02:19.903Z,100683.41
2023-05-18T16:07:21.473Z,100676.28
2023-05-18T16:12:23.050Z,100689.63
2023-05-18T16:17:24.681Z,100660.72
2023-05-18T16:22:26.583Z,100683.78
2023-05-18T16:27:28.270Z,100675.13
2023-05-18T16:32:31.546Z,100669.34
2023-05-18T16:37:33.197Z,100683.91
2023-05-18T16:42:35.107Z,100668.22
2023-05-18T16:47:36.686Z,100672.38
2023-05-18T16:52:38.222Z,100671.13
2023-05-18T16:57:39.854Z,100685.19
2023-05-18T17:02:41.690Z,100685.75
2023-05-18T17:07:43.414Z,100687.72
2023-05-18T17:12:45.268Z,100696.50
2023-05-18T17:17:46.835Z,100690.03
2023-05-18T17:22:48.532Z,100691.94
2023-05-18T17:27:50.087Z,100701.56
2023-05-18T17:32:51.704Z,100700.94
2023-05-18T17:37:54.496Z,100696.16
2023-05-18T17:42:56.033Z,100696.88
2023-05-18T17:47:57.626Z,100691.81
2023-05-18T17:52:59.202Z,100687.03
2023-05-18T17:58:02.429Z,100692.06
2023-05-18T18:03:04.212Z,100699.50
2023-05-18T18:08:06.446Z,100700.66
2023-05-18T18:13:07.993Z,100717.38
2023-05-18T18:18:10.785Z,100717.53
2023-05-18T18:23:12.400Z,100724.75
2023-05-18T18:28:15.189Z,100727.06
2023-05-18T18:33:17.320Z,100719.28
2023-05-18T18:38:19.517Z,100722.09
2023-05-18T18:43:21.066Z,100729.47
2023-05-18T18:48:23.481Z,100733.38
2023-05-18T18:53:26.358Z,100747.28
2023-05-18T18:58:27.943Z,100755.91
2023-05-18T19:03:29.634Z,100758.38
2023-05-18T19:08:31.705Z,100769.78
2023-05-18T19:13:33.311Z,100769.00
2023-05-18T19:18:34.996Z,100778.19
2023-05-18T19:23:36.593Z,100778.28
2023-05-18T19:28:38.173Z,100782.34
2023-05-18T19:33:39.777Z,100803.19
2023-05-18T19:38:41.458Z,100802.44
2023-05-18T19:43:42.984Z,100801.84
2023-05-18T19:48:44.587Z,100810.13
2023-05-18T19:53:46.258Z,100820.75
2023-05-18T19:58:48.656Z,100827.09
2023-05-18T20:03:50.881Z,100825.63
2023-05-18T20:08:52.431Z,100830.00
2023-05-18T20:13:54.153Z,100826.97
2023-05-18T20:18:55.913Z,100828.81
2023-05-18T20:23:57.573Z,100833.41
2023-05-18T20:28:59.120Z,100839.84
2023-05-18T20:34:00.668Z,100836.56
2023-05-18T20:39:02.465Z,100841.03
2023-05-18T20:44:04.058Z,100841.16
2023-05-18T20:49:05.585Z,100843.69
2023-05-18T20:54:07.526Z,100844.97
2023-05-18T20:59:09.986Z,100857.63
2023-05-18T21:04:13.114Z,100861.00
2023-05-18T21:09:16.855Z,100870.03
2023-05-18T21:14:18.411Z,100872.13
2023-05-18T21:19:20.111Z,100863.94
2023-05-18T21:24:21.662Z,100860.53
2023-05-18T21:29:23.268Z,100862.44
2023-05-18T21:34:24.850Z,100865.16
2023-05-18T21:39:26.447Z,100862.19
2023-05-18T21:44:27.992Z,100856.72
2023-05-18T21:49:29.508Z,100870.16
2023-05-18T21:54:33.347Z,100867.19
2023-05-18T21:59:34.924Z,100866.31
2023-05-18T22:04:36.589Z,100857.84
2023-05-18T22:09:38.249Z,100865.81
2023-05-18T22:14:39.822Z,100862.63
2023-05-18T22:19:45.644Z,100863.47
2023-05-18T22:24:48.724Z,100861.13
2023-05-18T22:29:50.479Z,100857.56
2023-05-18T22:34:52.128Z,100853.75
2023-05-18T22:39:53.833Z,100858.63
2023-05-18T22:44:55.616Z,100853.81
2023-05-18T22:49:57.179Z,100842.00
2023-05-18T22:54:58.720Z,100841.53
2023-05-18T23:00:00.784Z,100842.94
2023-05-18T23:05:02.727Z,100844.84
2023-05-18T23:10:11.165Z,100840.84
2023-05-18T23:15:12.801Z,100842.66
2023-05-18T23:20:14.360Z,100852.56
2023-05-18T23:25:16.075Z,100843.34
2023-05-18T23:30:17.629Z,100834.66
2023-05-18T23:35:19.523Z,100849.81
2023-05-18T23:40:21.765Z,100839.94
2023-05-18T23:45:23.671Z,100848.81
2023-05-18T23:50:25.766Z,100842.13
2023-05-18T23:55:28.356Z,100830.16
